Time;durP1;ratioP1;P1;durP2;ratioP2;P2;SDS_P1;SDS_P2;PMS_P1;PMS_P2;Temp;Humidity;BMP_temperature;BMP_pressure;BME280_temperature;BME280_humidity;BME280_pressure;Samples;Min_cycle;Max_cycle;Signal;HPM_P1;HPM_P2
2021/09/02 00:01:34;;;;;;;32.90;30.80;;;;;;;16.54;100.00;101148.34;5075195;28;20459;-77
2021/09/02 00:04:01;;;;;;;30.65;28.55;;;;;;;17.77;100.00;101135.47;5075620;28;20040;-78
2021/09/02 00:06:27;;;;;;;32.55;29.92;;;;;;;17.29;100.00;101144.78;5075605;28;20048;-78
2021/09/02 00:08:54;;;;;;;30.10;28.13;;;;;;;17.33;100.00;101143.25;5075436;28;20048;-77
2021/09/02 00:11:21;;;;;;;34.20;31.42;;;;;;;17.84;100.00;101129.94;5075474;28;20056;-77
2021/09/02 00:13:48;;;;;;;29.60;27.58;;;;;;;16.55;100.00;101141.09;5075384;28;20053;-77
2021/09/02 00:16:16;;;;;;;32.38;29.95;;;;;;;16.75;100.00;101140.72;5075394;28;20062;-77
2021/09/02 00:18:43;;;;;;;31.05;28.65;;;;;;;16.32;100.00;101140.09;5075602;28;20049;-77
2021/09/02 00:21:11;;;;;;;31.15;28.80;;;;;;;17.18;100.00;101138.41;5075257;28;20097;-76
2021/09/02 00:23:38;;;;;;;30.02;27.45;;;;;;;17.20;100.00;101135.50;5074979;28;20473;-78
2021/09/02 00:26:05;;;;;;;30.27;28.17;;;;;;;17.02;100.00;101141.84;5074352;28;20053;-78
2021/09/02 00:28:32;;;;;;;30.77;28.38;;;;;;;17.32;100.00;101141.63;5075170;28;20045;-76
2021/09/02 00:30:58;;;;;;;29.90;27.88;;;;;;;17.18;100.00;101141.09;5075096;28;20113;-77
2021/09/02 00:33:27;;;;;;;32.15;29.95;;;;;;;17.91;100.00;101144.00;5074537;28;20484;-77
2021/09/02 00:35:53;;;;;;;28.13;26.13;;;;;;;17.10;100.00;101146.84;5074759;28;20052;-77
2021/09/02 00:38:20;;;;;;;32.28;30.00;;;;;;;16.49;100.00;101148.25;5075172;28;20078;-77
2021/09/02 00:40:47;;;;;;;31.77;29.23;;;;;;;16.64;100.00;101148.56;5074689;28;20044;-77
2021/09/02 00:43:13;;;;;;;30.50;28.42;;;;;;;17.38;100.00;101150.59;5074857;28;20048;-77
2021/09/02 00:45:40;;;;;;;32.35;29.73;;;;;;;17.81;100.00;101141.97;5074823;28;20158;-78
2021/09/02 00:48:07;;;;;;;29.70;27.80;;;;;;;16.35;100.00;101142.28;5074740;28;20060;-78
2021/09/02 00:50:36;;;;;;;30.05;27.67;;;;;;;16.49;100.00;101151.75;5074713;28;20052;-78
2021/09/02 00:53:04;;;;;;;30.23;27.85;;;;;;;17.36;100.00;101148.13;5074243;28;20105;-77
2021/09/02 00:55:31;;;;;;;33.13;30.45;;;;;;;16.86;100.00;101150.66;5074530;28;20114;-77
2021/09/02 00:57:58;;;;;;;31.80;29.70;;;;;;;16.75;100.00;101146.91;5074336;28;20056;-78
2021/09/02 01:00:25;;;;;;;33.97;31.75;;;;;;;16.17;100.00;101155.81;5074196;28;20378;-77
2021/09/02 01:02:52;;;;;;;32.63;29.67;;;;;;;16.44;100.00;101150.81;5074098;28;20485;-77
2021/09/02 01:05:20;;;;;;;33.67;31.27;;;;;;;16.15;100.00;101157.91;5074366;28;20052;-78
2021/09/02 01:07:49;;;;;;;34.50;31.30;;;;;;;17.16;100.00;101153.16;5073960;28;20064;-77
2021/09/02 01:10:17;;;;;;;35.22;32.47;;;;;;;16.24;100.00;101149.28;5074010;28;20472;-77
2021/09/02 01:12:45;;;;;;;32.33;29.92;;;;;;;16.33;100.00;101160.47;5074121;28;20066;-77
2021/09/02 01:15:14;;;;;;;34.75;32.38;;;;;;;16.53;100.00;101156.63;5074367;28;20061;-77
2021/09/02 01:17:42;;;;;;;35.92;33.63;;;;;;;18.12;100.00;101160.47;5073956;28;20481;-77
2021/09/02 01:20:11;;;;;;;35.25;32.97;;;;;;;16.54;100.00;101163.63;5073765;28;20056;-76
2021/09/02 01:22:38;;;;;;;37.40;34.45;;;;;;;16.16;100.00;101167.59;5074381;28;20129;-77
2021/09/02 01:25:10;;;;;;;37.92;35.42;;;;;;;16.30;100.00;101165.47;5074122;28;20049;-76
2021/09/02 01:27:37;;;;;;;35.28;32.63;;;;;;;16.44;100.00;101158.84;5074024;28;20060;-76
2021/09/02 01:30:06;;;;;;;33.97;31.77;;;;;;;16.38;100.00;101157.91;5074025;28;20049;-77
2021/09/02 01:32:35;;;;;;;34.40;32.00;;;;;;;16.21;100.00;101160.47;5073913;28;20109;-77
2021/09/02 01:35:05;;;;;;;33.10;30.50;;;;;;;16.36;100.00;101162.69;5073836;28;20048;-79
2021/09/02 01:37:38;;;;;;;35.28;32.78;;;;;;;17.31;100.00;101153.44;5073857;28;20052;-79
2021/09/02 01:40:08;;;;;;;36.80;34.20;;;;;;;16.05;100.00;101153.13;5073834;28;20048;-78
2021/09/02 01:42:35;;;;;;;36.85;34.33;;;;;;;16.95;100.00;101157.28;5074057;28;20052;-78
2021/09/02 01:45:02;;;;;;;34.47;32.08;;;;;;;16.58;100.00;101152.19;5073724;28;20049;-77
2021/09/02 01:47:29;;;;;;;34.15;31.92;;;;;;;16.84;100.00;101150.88;5074164;28;20055;-78
2021/09/02 01:50:05;;;;;;;35.50;33.00;;;;;;;15.95;100.00;101151.03;5073695;28;20071;-77
2021/09/02 01:52:32;;;;;;;36.97;34.20;;;;;;;16.30;100.00;101150.22;5073700;28;20073;-82
2021/09/02 01:54:59;;;;;;;34.88;31.75;;;;;;;16.00;100.00;101155.66;5073616;28;20060;-78
2021/09/02 01:57:27;;;;;;;38.15;35.45;;;;;;;17.27;100.00;101149.56;5073463;28;20052;-77
2021/09/02 01:59:54;;;;;;;37.03;34.35;;;;;;;16.20;100.00;101150.81;5073340;28;20550;-78
2021/09/02 02:02:20;;;;;;;38.47;35.65;;;;;;;16.39;100.00;101150.69;5186025;22;20496;-78
2021/09/02 02:04:47;;;;;;;40.28;37.65;;;;;;;16.76;100.00;101150.44;5073243;28;20102;-78
2021/09/02 02:07:14;;;;;;;38.92;36.10;;;;;;;16.03;100.00;101152.53;5073283;28;20476;-78
2021/09/02 02:09:41;;;;;;;34.88;32.38;;;;;;;17.48;100.00;101145.41;5073055;28;20052;-78
2021/09/02 02:12:08;;;;;;;36.90;34.08;;;;;;;16.15;100.00;101145.31;5073838;28;20480;-78
2021/09/02 02:14:37;;;;;;;39.60;36.88;;;;;;;16.41;100.00;101149.41;5073061;28;20044;-78
2021/09/02 02:17:04;;;;;;;42.65;39.97;;;;;;;18.31;100.00;101148.41;5073481;28;20055;-77
2021/09/02 02:19:30;;;;;;;36.22;33.60;;;;;;;15.93;100.00;101142.38;5073365;28;20072;-77
2021/09/02 02:21:57;;;;;;;42.65;39.67;;;;;;;17.36;100.00;101137.41;5073087;28;20458;-78
2021/09/02 02:24:24;;;;;;;41.13;38.67;;;;;;;16.81;100.00;101142.50;5073152;28;20067;-78
2021/09/02 02:26:51;;;;;;;38.58;35.92;;;;;;;16.15;100.00;101144.50;5072968;28;20477;-77
2021/09/02 02:29:18;;;;;;;40.15;37.60;;;;;;;17.36;100.00;101132.03;5073216;28;20060;-78
2021/09/02 02:31:46;;;;;;;40.50;37.75;;;;;;;16.17;100.00;101137.06;5073068;28;20122;-78
2021/09/02 02:34:13;;;;;;;38.28;35.42;;;;;;;17.49;100.00;101136.31;5073285;28;20118;-78
2021/09/02 02:36:40;;;;;;;43.92;41.15;;;;;;;16.69;100.00;101145.16;5073251;28;20063;-79
2021/09/02 02:39:06;;;;;;;41.97;39.17;;;;;;;16.96;100.00;101139.31;5072985;28;20759;-79
2021/09/02 02:41:33;;;;;;;36.58;34.25;;;;;;;16.13;100.00;101152.78;5073134;28;20492;-81
2021/09/02 02:44:00;;;;;;;37.30;35.03;;;;;;;16.05;100.00;101155.81;5073127;28;20048;-78
2021/09/02 02:46:27;;;;;;;47.42;44.70;;;;;;;15.79;100.00;101147.16;5073208;28;20193;-78
2021/09/02 02:48:55;;;;;;;36.55;33.95;;;;;;;15.74;100.00;101154.25;5073202;28;20106;-77
2021/09/02 02:51:22;;;;;;;36.40;34.08;;;;;;;15.70;100.00;101147.69;5076580;28;20075;-77
2021/09/02 02:53:49;;;;;;;37.13;34.83;;;;;;;16.38;100.00;101152.56;5076786;28;20044;-78
2021/09/02 02:56:16;;;;;;;36.13;33.58;;;;;;;15.68;100.00;101160.50;5076941;28;20048;-78
2021/09/02 02:58:44;;;;;;;35.35;33.15;;;;;;;15.95;100.00;101166.28;5076850;28;20041;-78
2021/09/02 03:01:11;;;;;;;42.10;39.70;;;;;;;16.02;100.00;101161.63;5076302;28;20048;-78
2021/09/02 03:03:38;;;;;;;37.05;34.65;;;;;;;15.94;100.00;101168.13;5076677;28;20129;-77
2021/09/02 03:06:08;;;;;;;38.92;36.53;;;;;;;15.48;100.00;101166.91;5076660;28;20052;-78
2021/09/02 03:08:35;;;;;;;38.15;35.75;;;;;;;16.39;100.00;101170.25;5076458;28;20472;-78
2021/09/02 03:11:01;;;;;;;33.25;30.95;;;;;;;15.50;100.00;101162.16;5076661;28;20052;-78
2021/09/02 03:13:28;;;;;;;35.55;33.15;;;;;;;15.95;100.00;101172.44;5076475;28;20057;-78
2021/09/02 03:15:55;;;;;;;34.75;32.45;;;;;;;16.11;100.00;101162.91;5076255;28;20405;-78
2021/09/02 03:18:22;;;;;;;35.15;32.85;;;;;;;15.94;100.00;101161.94;5076045;28;20057;-78
2021/09/02 03:20:48;;;;;;;35.42;32.97;;;;;;;15.54;100.00;101163.34;5076128;28;20060;-79
2021/09/02 03:23:17;;;;;;;38.20;35.60;;;;;;;15.47;100.00;101157.28;5076133;28;20053;-78
2021/09/02 03:25:44;;;;;;;34.97;32.13;;;;;;;16.38;100.00;101155.22;5076132;28;20392;-78
2021/09/02 03:28:10;;;;;;;34.33;32.03;;;;;;;16.13;100.00;101158.16;5076322;28;20052;-79
2021/09/02 03:30:37;;;;;;;34.80;32.30;;;;;;;15.42;100.00;101162.47;5076327;28;20122;-81
2021/09/02 03:33:04;;;;;;;37.90;35.42;;;;;;;15.38;100.00;101163.19;5076237;28;20122;-77
2021/09/02 03:35:31;;;;;;;35.17;32.78;;;;;;;15.54;100.00;101166.00;5075808;28;20419;-77
2021/09/02 03:37:57;;;;;;;34.60;32.00;;;;;;;17.67;100.00;101161.28;5075853;28;20056;-78
2021/09/02 03:40:26;;;;;;;32.75;30.42;;;;;;;17.54;100.00;101159.72;5076043;28;20052;-78
2021/09/02 03:42:52;;;;;;;30.80;28.60;;;;;;;16.65;100.00;101165.47;5076261;28;20056;-78
2021/09/02 03:45:19;;;;;;;31.25;29.10;;;;;;;15.63;100.00;101163.84;5076330;28;20052;-78
2021/09/02 03:47:48;;;;;;;29.88;27.88;;;;;;;16.22;100.00;101170.16;5076012;28;20048;-78
2021/09/02 03:50:15;;;;;;;29.63;27.50;;;;;;;16.24;100.00;101169.91;5076035;28;20131;-77
2021/09/02 03:52:42;;;;;;;30.85;28.67;;;;;;;16.32;100.00;101174.13;5075502;28;20442;-78
2021/09/02 03:55:10;;;;;;;32.70;30.58;;;;;;;16.01;100.00;101187.59;5075474;28;20446;-78
2021/09/02 03:57:38;;;;;;;34.13;32.00;;;;;;;17.30;100.00;101180.50;5076073;28;20045;-79
2021/09/02 04:00:07;;;;;;;31.70;29.25;;;;;;;15.88;100.00;101185.09;5075301;28;20063;-78
2021/09/02 04:02:34;;;;;;;32.05;30.15;;;;;;;16.80;100.00;101186.47;5075189;28;20060;-78
2021/09/02 04:05:01;;;;;;;29.65;27.52;;;;;;;16.19;100.00;101188.56;5075322;28;20106;-77
2021/09/02 04:07:27;;;;;;;31.38;29.02;;;;;;;15.93;100.00;101184.44;5075560;28;20477;-79
2021/09/02 04:09:54;;;;;;;34.05;31.65;;;;;;;15.69;100.00;101189.72;5075602;28;20586;-78
2021/09/02 04:12:21;;;;;;;31.52;29.33;;;;;;;15.75;100.00;101199.53;5075759;28;20048;-77
2021/09/02 04:14:49;;;;;;;29.33;27.23;;;;;;;16.17;100.00;101198.69;5075419;28;20052;-78
2021/09/02 04:17:16;;;;;;;30.67;28.48;;;;;;;15.77;100.00;101205.47;5075371;28;20110;-78
2021/09/02 04:19:43;;;;;;;31.88;29.73;;;;;;;15.91;100.00;101198.03;5075435;28;20059;-77
2021/09/02 04:22:09;;;;;;;32.28;30.08;;;;;;;15.70;100.00;101214.63;5075273;28;20476;-78
2021/09/02 04:24:36;;;;;;;31.35;29.35;;;;;;;15.63;100.00;101206.66;5075241;28;20111;-79
2021/09/02 04:27:03;;;;;;;33.70;31.50;;;;;;;16.45;100.00;101206.03;5074918;28;20055;-78
2021/09/02 04:29:30;;;;;;;32.60;30.33;;;;;;;15.76;100.00;101205.69;5075151;28;20137;-78
2021/09/02 04:31:58;;;;;;;30.35;28.27;;;;;;;15.94;100.00;101208.28;5075151;28;20541;-78
2021/09/02 04:34:25;;;;;;;30.60;28.50;;;;;;;16.02;100.00;101213.34;5075084;28;20052;-77
2021/09/02 04:36:51;;;;;;;30.42;28.05;;;;;;;16.10;100.00;101208.72;5075091;28;20048;-77
2021/09/02 04:39:18;;;;;;;29.98;27.77;;;;;;;17.40;100.00;101210.25;5075033;28;20106;-80
2021/09/02 04:41:46;;;;;;;29.67;27.30;;;;;;;16.19;100.00;101204.66;5074561;28;20051;-78
2021/09/02 04:44:13;;;;;;;30.83;28.38;;;;;;;16.11;100.00;101207.66;5074906;28;20044;-78
2021/09/02 04:46:39;;;;;;;29.92;27.70;;;;;;;16.52;100.00;101225.53;5074591;28;20531;-77
2021/09/02 04:49:08;;;;;;;30.58;28.25;;;;;;;16.59;100.00;101217.38;5074461;28;20048;-78
2021/09/02 04:51:34;;;;;;;30.75;28.70;;;;;;;17.07;100.00;101222.47;5074516;28;20428;-78
2021/09/02 04:54:01;;;;;;;32.78;30.45;;;;;;;17.29;100.00;101219.97;5074450;28;20469;-77
2021/09/02 04:56:28;;;;;;;29.80;27.60;;;;;;;16.49;100.00;101218.75;5074282;28;20045;-77
2021/09/02 04:58:55;;;;;;;31.33;28.90;;;;;;;16.51;100.00;101215.03;5074456;28;20052;-78
2021/09/02 05:01:43;;;;;;;34.35;32.22;;;;;;;16.43;100.00;101213.50;5073896;28;20538;-77
2021/09/02 05:04:11;;;;;;;30.58;28.42;;;;;;;16.48;100.00;101225.16;5074495;28;20484;-76
2021/09/02 05:06:44;;;;;;;30.17;28.05;;;;;;;16.66;100.00;101216.19;5074343;28;20129;-77
2021/09/02 05:09:11;;;;;;;32.58;30.35;;;;;;;16.59;100.00;101228.91;5074299;28;20055;-78
2021/09/02 05:11:37;;;;;;;28.23;26.23;;;;;;;17.35;100.00;101223.56;5074281;28;20121;-77
2021/09/02 05:14:04;;;;;;;29.60;27.13;;;;;;;17.17;100.00;101232.59;5073924;28;20053;-78
2021/09/02 05:16:31;;;;;;;30.48;27.80;;;;;;;17.17;100.00;101224.53;5074203;28;20052;-78
2021/09/02 05:18:57;;;;;;;28.15;26.15;;;;;;;17.32;100.00;101224.03;5073857;28;20468;-78
2021/09/02 05:21:26;;;;;;;29.63;27.42;;;;;;;17.20;100.00;101224.06;5073801;28;20566;-78
2021/09/02 05:23:52;;;;;;;28.30;26.38;;;;;;;17.87;100.00;101225.34;5074139;28;20067;-78
2021/09/02 05:26:19;;;;;;;29.30;27.20;;;;;;;17.50;100.00;101221.16;5074301;28;20470;-78
2021/09/02 05:28:46;;;;;;;28.00;25.85;;;;;;;17.24;100.00;101222.53;5073977;28;20114;-78
2021/09/02 05:31:13;;;;;;;28.85;26.83;;;;;;;17.26;100.00;101227.69;5074030;28;20052;-78
2021/09/02 05:33:40;;;;;;;29.23;27.42;;;;;;;17.63;100.00;101212.81;5074030;28;20053;-77
2021/09/02 05:36:07;;;;;;;28.92;26.92;;;;;;;17.34;100.00;101212.00;5073609;28;20048;-78
2021/09/02 05:38:35;;;;;;;29.85;27.33;;;;;;;18.50;100.00;101219.66;5073885;28;20044;-78
2021/09/02 05:41:01;;;;;;;28.98;26.88;;;;;;;17.85;100.00;101223.72;5073515;28;20052;-79
2021/09/02 05:43:28;;;;;;;27.67;25.77;;;;;;;17.49;100.00;101216.88;5073836;28;20127;-78
2021/09/02 05:45:55;;;;;;;28.90;26.80;;;;;;;18.18;100.00;101224.81;5073543;28;20045;-77
2021/09/02 05:48:22;;;;;;;28.73;26.73;;;;;;;17.77;100.00;101224.13;5073790;28;20454;-78
2021/09/02 05:50:50;;;;;;;31.60;29.60;;;;;;;17.51;100.00;101224.66;5073871;28;20063;-79
2021/09/02 05:53:17;;;;;;;31.13;28.98;;;;;;;17.67;100.00;101215.84;5073679;28;20049;-78
2021/09/02 05:55:45;;;;;;;30.42;28.52;;;;;;;18.27;100.00;101214.47;5073646;28;20041;-79
2021/09/02 05:58:12;;;;;;;29.90;28.00;;;;;;;18.06;100.00;101207.94;5073839;28;20059;-79
2021/09/02 06:00:39;;;;;;;29.58;27.58;;;;;;;17.88;100.00;101206.28;5073877;28;20044;-78
2021/09/02 06:03:05;;;;;;;30.83;28.80;;;;;;;18.80;100.00;101213.13;5073375;28;20454;-78
2021/09/02 06:05:32;;;;;;;32.53;30.42;;;;;;;17.88;100.00;101208.97;5073351;28;20075;-78
2021/09/02 06:07:59;;;;;;;31.33;29.00;;;;;;;17.98;100.00;101219.91;5073520;28;20117;-77
2021/09/02 06:10:26;;;;;;;29.65;27.75;;;;;;;18.26;100.00;101210.16;5073565;28;20056;-78
2021/09/02 06:12:56;;;;;;;30.48;28.15;;;;;;;18.30;100.00;101220.16;5073768;28;20059;-77
2021/09/02 06:15:23;;;;;;;29.63;27.52;;;;;;;18.70;100.00;101212.97;5073097;28;20468;-78
2021/09/02 06:17:50;;;;;;;31.60;29.45;;;;;;;18.37;100.00;101219.19;5073407;28;20122;-78
2021/09/02 06:20:17;;;;;;;31.30;28.55;;;;;;;18.20;100.00;101222.69;5073207;28;20098;-78
2021/09/02 06:22:43;;;;;;;30.02;27.80;;;;;;;18.24;100.00;101226.50;5073483;28;20074;-77
2021/09/02 06:25:11;;;;;;;29.13;26.70;;;;;;;18.33;100.00;101232.28;5075276;28;20082;-77
2021/09/02 06:27:39;;;;;;;30.67;28.15;;;;;;;19.05;100.00;101236.88;5077357;28;20048;-78
2021/09/02 06:30:09;;;;;;;30.45;28.00;;;;;;;19.31;100.00;101234.50;5077488;28;20083;-78
2021/09/02 06:32:36;;;;;;;28.73;26.30;;;;;;;19.69;100.00;101230.88;5077265;28;20048;-78
2021/09/02 06:35:03;;;;;;;29.60;27.27;;;;;;;18.83;100.00;101241.41;5077517;28;20457;-77
2021/09/02 06:37:30;;;;;;;28.50;26.30;;;;;;;19.77;100.00;101232.31;5077469;28;20049;-77
2021/09/02 06:39:57;;;;;;;31.92;29.67;;;;;;;19.46;100.00;101237.38;5076958;28;20044;-78
2021/09/02 06:42:24;;;;;;;30.85;28.67;;;;;;;19.76;100.00;101222.59;5077154;28;20044;-77
2021/09/02 06:44:51;;;;;;;28.15;26.35;;;;;;;19.79;100.00;101227.47;5076998;28;20056;-78
2021/09/02 06:47:19;;;;;;;29.63;27.63;;;;;;;20.20;100.00;101227.84;5077083;28;20511;-77
2021/09/02 06:49:45;;;;;;;29.25;27.35;;;;;;;19.12;100.00;101240.19;5077193;28;20048;-76
2021/09/02 06:52:12;;;;;;;29.75;27.55;;;;;;;19.41;100.00;101245.38;5077053;28;20462;-77
2021/09/02 06:54:39;;;;;;;30.30;28.05;;;;;;;19.58;100.00;101240.72;5076783;28;20473;-77
2021/09/02 06:57:06;;;;;;;30.90;28.42;;;;;;;19.91;100.00;101233.53;5076632;28;20052;-78
2021/09/02 06:59:33;;;;;;;29.95;27.45;;;;;;;19.95;100.00;101240.03;5076868;28;20052;-77
2021/09/02 07:01:59;;;;;;;31.23;28.83;;;;;;;19.92;100.00;101237.84;5076484;28;20052;-78
2021/09/02 07:04:27;;;;;;;30.70;27.85;;;;;;;20.02;100.00;101229.84;5076769;28;20114;-79
2021/09/02 07:06:54;;;;;;;29.65;27.02;;;;;;;19.79;100.00;101244.47;5076659;28;20055;-78
2021/09/02 07:09:21;;;;;;;28.10;25.88;;;;;;;20.33;100.00;101238.19;5076554;28;20066;-78
2021/09/02 07:11:48;;;;;;;29.35;27.00;;;;;;;20.11;100.00;101249.06;5076803;28;20057;-79
2021/09/02 07:14:15;;;;;;;29.17;27.08;;;;;;;19.92;100.00;101243.25;5076717;28;20071;-77
2021/09/02 07:16:41;;;;;;;26.27;24.17;;;;;;;20.43;100.00;101249.06;5076595;28;20462;-78
2021/09/02 07:19:08;;;;;;;25.63;23.60;;;;;;;20.14;100.00;101248.56;5076527;28;20056;-78
2021/09/02 07:21:37;;;;;;;25.90;23.70;;;;;;;20.36;100.00;101245.75;5076787;28;20048;-78
2021/09/02 07:24:04;;;;;;;26.20;24.25;;;;;;;21.05;100.00;101244.88;5076435;28;20076;-78
2021/09/02 07:26:31;;;;;;;26.25;24.10;;;;;;;21.20;100.00;101247.63;5076239;28;20063;-78
2021/09/02 07:28:58;;;;;;;28.30;26.13;;;;;;;20.95;100.00;101242.13;5076502;28;20059;-78
2021/09/02 07:31:25;;;;;;;31.38;29.42;;;;;;;21.02;100.00;101254.31;5076320;28;20048;-78
2021/09/02 07:33:51;;;;;;;30.50;28.35;;;;;;;21.12;100.00;101255.41;5076322;28;20056;-78
2021/09/02 07:36:18;;;;;;;27.65;25.63;;;;;;;21.27;100.00;101253.63;5075890;28;20056;-77
2021/09/02 07:38:46;;;;;;;28.70;26.90;;;;;;;21.37;100.00;101262.88;5076312;28;20049;-77
2021/09/02 07:41:14;;;;;;;28.00;26.00;;;;;;;21.35;100.00;101264.97;5075893;28;20052;-77
2021/09/02 07:43:42;;;;;;;27.50;25.40;;;;;;;20.90;100.00;101261.81;5076313;28;20371;-78
2021/09/02 07:46:09;;;;;;;27.17;25.00;;;;;;;21.71;100.00;101255.94;5076128;28;20044;-79
2021/09/02 07:48:37;;;;;;;27.90;25.60;;;;;;;21.04;100.00;101271.06;5076148;28;20060;-78
2021/09/02 07:51:04;;;;;;;27.10;25.10;;;;;;;20.87;100.00;101264.22;5076141;28;20049;-77
2021/09/02 07:53:31;;;;;;;27.00;25.20;;;;;;;21.39;100.00;101253.44;5076207;28;20063;-78
2021/09/02 07:55:59;;;;;;;26.00;24.20;;;;;;;22.16;100.00;101245.44;5076191;28;20052;-79
2021/09/02 07:58:26;;;;;;;26.90;25.00;;;;;;;22.30;100.00;101257.38;5075918;28;20063;-78
2021/09/02 08:00:53;;;;;;;30.85;28.60;;;;;;;21.96;100.00;101248.94;5075785;28;20056;-77
2021/09/02 08:03:19;;;;;;;31.55;29.50;;;;;;;21.70;100.00;101258.91;5075190;28;20382;-78
2021/09/02 08:05:46;;;;;;;29.55;27.65;;;;;;;21.85;100.00;101250.84;5075452;28;20464;-78
2021/09/02 08:08:16;;;;;;;31.58;29.48;;;;;;;21.72;100.00;101254.03;5075659;28;20048;-79
2021/09/02 08:10:44;;;;;;;30.80;28.73;;;;;;;22.78;100.00;101243.47;5075418;28;20113;-78
2021/09/02 08:13:12;;;;;;;29.10;26.95;;;;;;;22.61;100.00;101247.31;5075649;28;20056;-78
2021/09/02 08:15:39;;;;;;;27.65;25.45;;;;;;;22.23;100.00;101243.28;5075462;28;20076;-77
2021/09/02 08:18:07;;;;;;;30.75;28.58;;;;;;;22.55;100.00;101240.28;5075275;28;20048;-79
2021/09/02 08:20:35;;;;;;;31.38;29.15;;;;;;;22.04;100.00;101242.19;5075461;28;20106;-78
2021/09/02 08:23:03;;;;;;;32.50;29.83;;;;;;;22.56;100.00;101249.22;5075230;28;20052;-77
2021/09/02 08:25:31;;;;;;;32.05;29.30;;;;;;;22.70;100.00;101246.78;5075366;28;20055;-78
2021/09/02 08:27:58;;;;;;;36.40;33.92;;;;;;;22.54;100.00;101243.25;5074983;28;20455;-79
2021/09/02 08:30:28;;;;;;;30.55;28.30;;;;;;;22.65;100.00;101244.88;5074897;28;20110;-79
2021/09/02 08:32:56;;;;;;;28.98;26.77;;;;;;;22.74;100.00;101240.53;5075048;28;20098;-77
2021/09/02 08:35:25;;;;;;;29.30;27.20;;;;;;;23.06;100.00;101242.09;5075126;28;20052;-77
2021/09/02 08:37:53;;;;;;;29.75;27.85;;;;;;;23.11;100.00;101233.91;5075120;28;20052;-77
2021/09/02 08:40:22;;;;;;;27.30;25.60;;;;;;;22.84;100.00;101232.38;5075035;28;20059;-76
2021/09/02 08:42:49;;;;;;;28.15;26.20;;;;;;;23.10;100.00;101229.59;5074706;28;20439;-78
2021/09/02 08:45:16;;;;;;;28.23;26.13;;;;;;;23.25;100.00;101231.44;5075400;28;20068;-78
2021/09/02 08:47:47;;;;;;;28.02;26.33;;;;;;;22.62;100.00;101234.59;5074218;28;20052;-77
2021/09/02 08:50:14;;;;;;;27.08;25.38;;;;;;;23.06;100.00;101240.19;5075194;28;20129;-78
2021/09/02 08:52:41;;;;;;;28.27;26.42;;;;;;;23.59;100.00;101230.72;5075031;28;20049;-77
2021/09/02 08:55:09;;;;;;;29.05;27.00;;;;;;;23.82;100.00;101231.94;5074312;28;20408;-77
2021/09/02 08:57:36;;;;;;;27.50;25.75;;;;;;;23.75;99.72;101224.09;5074756;28;20121;-78
2021/09/02 09:00:04;;;;;;;27.42;25.73;;;;;;;23.91;99.52;101224.84;5074712;28;20044;-76
2021/09/02 09:02:32;;;;;;;26.42;24.92;;;;;;;23.43;100.00;101228.09;5074743;28;20071;-76
2021/09/02 09:05:05;;;;;;;27.10;25.35;;;;;;;23.56;100.00;101226.66;5074234;28;20055;-78
2021/09/02 09:07:32;;;;;;;31.08;28.83;;;;;;;23.73;100.00;101229.03;5074817;28;20052;-80
2021/09/02 09:09:59;;;;;;;31.38;29.48;;;;;;;24.20;99.23;101217.50;5074469;28;20044;-78
2021/09/02 09:12:34;;;;;;;31.33;28.83;;;;;;;24.72;94.25;101228.72;5074301;28;20052;-77
2021/09/02 09:15:00;;;;;;;26.35;24.73;;;;;;;23.95;95.18;101228.59;5074167;28;20060;-77
2021/09/02 09:17:27;;;;;;;26.02;24.52;;;;;;;24.26;99.07;101220.19;5074074;28;20056;-79
2021/09/02 09:19:54;;;;;;;27.23;25.63;;;;;;;24.86;91.07;101217.97;5074798;28;20055;-78
2021/09/02 09:22:25;;;;;;;30.02;28.42;;;;;;;25.15;79.85;101223.34;5074870;28;20044;-77
2021/09/02 09:24:54;;;;;;;29.30;27.55;;;;;;;25.45;76.85;101218.59;5074645;28;20044;-78
2021/09/02 09:27:22;;;;;;;30.73;29.02;;;;;;;25.43;82.38;101220.81;5073892;28;20140;-78
2021/09/02 09:30:15;;;;;;;27.63;25.83;;;;;;;25.46;77.98;101220.22;5074274;28;20485;-79
2021/09/02 09:32:47;;;;;;;27.88;25.98;;;;;;;24.53;85.25;101212.34;5074338;28;20102;-79
2021/09/02 09:35:16;;;;;;;25.70;24.00;;;;;;;26.05;67.67;101213.31;5074256;28;20127;-79
2021/09/02 09:37:45;;;;;;;25.73;23.90;;;;;;;25.09;80.29;101219.84;5074003;28;20056;-77
2021/09/02 09:40:20;;;;;;;24.52;22.83;;;;;;;25.15;84.69;101227.97;5073879;28;20052;-77
2021/09/02 09:43:05;;;;;;;25.13;23.42;;;;;;;25.05;86.08;101218.00;5074069;28;20071;-82
2021/09/02 09:45:36;;;;;;;25.52;23.85;;;;;;;24.71;90.24;101215.41;5073721;28;20415;-78
2021/09/02 09:48:04;;;;;;;24.97;23.27;;;;;;;24.88;87.87;101211.13;5073920;28;20052;-78
2021/09/02 09:50:31;;;;;;;25.30;23.42;;;;;;;24.80;87.97;101214.50;5073659;28;20052;-79
2021/09/02 09:52:59;;;;;;;25.27;23.58;;;;;;;25.81;76.14;101213.44;5073999;28;20053;-79
2021/09/02 09:55:26;;;;;;;24.98;23.10;;;;;;;25.08;81.36;101220.13;5073427;28;20114;-77
2021/09/02 09:57:54;;;;;;;26.00;24.13;;;;;;;25.87;69.30;101220.44;5074607;28;20068;-79
2021/09/02 10:00:21;;;;;;;26.23;24.10;;;;;;;25.71;67.91;101214.38;5073874;28;20113;-78
2021/09/02 10:02:50;;;;;;;27.27;25.08;;;;;;;25.61;78.51;101202.88;5073695;28;20060;-79
2021/09/02 10:05:21;;;;;;;26.02;24.33;;;;;;;25.62;77.26;101209.91;5074120;28;20063;-77
2021/09/02 10:07:48;;;;;;;25.48;23.58;;;;;;;25.72;66.67;101207.84;5073725;28;20048;-79
2021/09/02 10:10:17;;;;;;;25.13;23.42;;;;;;;25.90;72.09;101210.84;5074242;28;20056;-78
2021/09/02 10:12:46;;;;;;;25.80;24.10;;;;;;;25.70;68.97;101210.06;5074371;28;20060;-78
2021/09/02 10:15:15;;;;;;;24.73;22.70;;;;;;;25.00;83.81;101207.22;5073504;28;20472;-78
2021/09/02 10:17:43;;;;;;;24.15;22.45;;;;;;;24.99;72.07;101205.56;5073237;28;20048;-78
2021/09/02 10:20:16;;;;;;;24.75;22.55;;;;;;;24.98;84.77;101212.91;5074301;28;20447;-79
2021/09/02 10:22:43;;;;;;;;;;;;;;;25.27;77.45;101212.06;5074032;28;20093;-78
2021/09/02 10:25:38;;;;;;;25.05;23.35;;;;;;;25.69;66.44;101210.34;5073632;28;19931;-77
2021/09/02 10:28:08;;;;;;;25.30;23.58;;;;;;;24.84;66.22;101218.25;5073543;28;20048;-78
2021/09/02 10:30:41;;;;;;;25.88;24.20;;;;;;;25.12;78.52;101213.84;5073438;28;20060;-78
2021/09/02 10:33:36;;;;;;;26.90;25.25;;;;;;;24.66;79.53;101203.53;5073600;28;20052;-78
2021/09/02 10:36:39;;;;;;;30.05;28.25;;;;;;;25.10;63.95;101210.59;5072979;28;20487;-78
2021/09/02 10:39:06;;;;;;;29.70;27.75;;;;;;;25.42;75.39;101203.69;5073545;28;20123;-78
2021/09/02 10:41:50;;;;;;;30.55;28.67;;;;;;;24.87;67.57;101206.81;5073559;28;20538;-77
2021/09/02 10:44:19;;;;;;;29.10;27.20;;;;;;;24.77;70.57;101212.34;5073250;28;20056;-78
2021/09/02 10:46:48;;;;;;;29.08;26.95;;;;;;;24.97;68.60;101208.59;5073454;28;20053;-78
2021/09/02 10:49:35;;;;;;;24.33;22.88;;;;;;;24.66;66.25;101211.66;5073408;28;20059;-78
2021/09/02 10:52:03;;;;;;;24.80;23.20;;;;;;;24.53;76.99;101215.06;5073254;28;20044;-79
2021/09/02 10:54:33;;;;;;;24.98;23.35;;;;;;;24.55;66.52;101212.88;5073177;28;20374;-81
2021/09/02 10:57:08;;;;;;;24.98;23.48;;;;;;;24.63;70.55;101211.41;5073249;28;20052;-79
2021/09/02 10:59:39;;;;;;;25.80;24.20;;;;;;;24.10;73.98;101205.94;5073451;28;20044;-78
2021/09/02 11:02:08;;;;;;;26.60;24.60;;;;;;;24.04;74.64;101215.22;5072794;28;20049;-77
2021/09/02 11:04:36;;;;;;;26.13;24.50;;;;;;;24.28;68.71;101204.44;5073133;28;20088;-78
2021/09/02 11:07:03;;;;;;;23.27;21.77;;;;;;;24.35;71.00;101194.84;5073182;28;20091;-79
2021/09/02 11:09:32;;;;;;;25.65;23.85;;;;;;;24.42;72.51;101192.66;5072878;28;20052;-79